createdAt,value
2023-01-25T00:02:25.784Z,101645.50
2023-01-25T00:05:28.739Z,101653.91
2023-01-25T00:08:31.344Z,101648.84
2023-01-25T00:11:34.289Z,101655.00
2023-01-25T00:14:37.199Z,101654.81
2023-01-25T00:17:40.167Z,101662.69
2023-01-25T00:20:43.155Z,101662.66
2023-01-25T00:23:46.813Z,101661.03
2023-01-25T00:26:49.344Z,101660.22
2023-01-25T00:29:54.305Z,101663.91
2023-01-25T00:33:43.469Z,101659.59
2023-01-25T00:36:46.328Z,101666.63
2023-01-25T00:39:48.957Z,101663.41
2023-01-25T00:42:52.061Z,101658.94
2023-01-25T00:46:01.222Z,101662.50
2023-01-25T00:49:05.759Z,101665.41
2023-01-25T00:52:09.865Z,101667.03
2023-01-25T00:55:12.790Z,101667.03
2023-01-25T00:58:15.549Z,101659.12
2023-01-25T01:01:18.704Z,101669.53
2023-01-25T01:04:25.173Z,101671.41
2023-01-25T01:07:28.308Z,101675.81
2023-01-25T01:10:33.502Z,101677.47
2023-01-25T01:13:37.033Z,101673.19
2023-01-25T01:16:39.793Z,101673.22
2023-01-25T01:19:44.867Z,101670.00
2023-01-25T01:22:47.441Z,101679.59
2023-01-25T01:25:50.885Z,101673.44
2023-01-25T01:28:53.608Z,101674.41
2023-01-25T01:31:57.339Z,101675.34
2023-01-25T01:35:00.276Z,101683.09
2023-01-25T01:38:03.618Z,101680.56
2023-01-25T01:41:08.963Z,101675.56
2023-01-25T01:44:22.707Z,101678.84
2023-01-25T01:47:32.563Z,101670.25
2023-01-25T01:50:36.701Z,101672.94
2023-01-25T01:53:45.072Z,101675.41
2023-01-25T01:56:57.414Z,101669.38
2023-01-25T02:00:34.416Z,101664.94
2023-01-25T02:03:38.574Z,101659.81
2023-01-25T02:06:51.104Z,101657.22
2023-01-25T02:09:53.980Z,101653.69
2023-01-25T02:12:58.551Z,101659.78
2023-01-25T02:16:02.328Z,101658.78
2023-01-25T02:19:07.522Z,101658.88
2023-01-25T02:22:16.389Z,101652.91
2023-01-25T02:25:19.384Z,101658.13
2023-01-25T02:28:31.464Z,101655.53
2023-01-25T02:31:35.108Z,101651.97
2023-01-25T02:34:38.095Z,101656.53
2023-01-25T02:37:41.103Z,101649.81
2023-01-25T02:41:09.064Z,101640.19
2023-01-25T02:44:18.017Z,101639.31
2023-01-25T02:47:20.930Z,101634.09
2023-01-25T02:50:23.701Z,101628.78
2023-01-25T02:53:27.535Z,101625.44
2023-01-25T02:56:30.581Z,101616.84
2023-01-25T02:59:33.969Z,101623.72
2023-01-25T03:02:36.955Z,101617.78
2023-01-25T03:05:39.922Z,101613.47
2023-01-25T03:08:43.258Z,101610.81
2023-01-25T03:11:46.370Z,101606.78
2023-01-25T03:14:49.187Z,101610.53
2023-01-25T03:17:53.998Z,101611.72
2023-01-25T03:21:17.348Z,101603.69
2023-01-25T03:24:20.687Z,101604.41
2023-01-25T03:27:23.423Z,101600.84
2023-01-25T03:30:27.510Z,101600.81
2023-01-25T03:33:30.339Z,101606.91
2023-01-25T03:36:33.851Z,101607.94
2023-01-25T03:39:36.725Z,101607.09
2023-01-25T03:42:39.720Z,101611.41
2023-01-25T03:45:44.059Z,101618.41
2023-01-25T03:48:48.054Z,101614.16
2023-01-25T03:51:51.534Z,101621.09
2023-01-25T03:54:55.083Z,101618.66
2023-01-25T03:57:59.066Z,101623.13
2023-01-25T04:01:05.972Z,101624.06
2023-01-25T04:04:09.313Z,101613.75
2023-01-25T04:07:14.309Z,101621.41
2023-01-25T04:10:17.498Z,101627.53
2023-01-25T04:13:26.004Z,101622.88
2023-01-25T04:16:32.687Z,101623.81
2023-01-25T04:19:37.375Z,101619.13
2023-01-25T04:22:40.614Z,101630.09
2023-01-25T04:25:58.001Z,101622.31
2023-01-25T04:29:01.024Z,101613.81
2023-01-25T04:32:04.513Z,101624.06
2023-01-25T04:35:09.409Z,101620.53
2023-01-25T04:38:12.458Z,101634.38
2023-01-25T04:41:15.806Z,101634.22
2023-01-25T04:44:20.080Z,101631.91
2023-01-25T04:47:23.533Z,101627.78
2023-01-25T04:50:26.827Z,101623.44
2023-01-25T04:53:30.560Z,101622.53
2023-01-25T04:56:35.542Z,101624.09
2023-01-25T04:59:38.651Z,101622.25
2023-01-25T05:02:41.471Z,101615.06
2023-01-25T05:05:48.019Z,101613.81
2023-01-25T05:08:51.284Z,101615.28
2023-01-25T05:11:54.985Z,101615.88
2023-01-25T05:14:58.937Z,101616.78
2023-01-25T05:18:02.568Z,101626.25
2023-01-25T05:21:26.692Z,101633.00
2023-01-25T05:24:33.176Z,101628.75
2023-01-25T05:27:36.792Z,101624.81
2023-01-25T05:30:44.646Z,101626.25
2023-01-25T05:33:47.495Z,101630.03
2023-01-25T05:36:50.562Z,101627.09
2023-01-25T05:39:53.508Z,101626.69
2023-01-25T05:43:00.321Z,101629.19
2023-01-25T05:46:05.130Z,101627.50
2023-01-25T05:49:08.138Z,101625.94
2023-01-25T05:52:15.744Z,101627.59
2023-01-25T05:55:19.072Z,101623.91
2023-01-25T05:58:22.108Z,101623.19
2023-01-25T06:01:25.770Z,101625.06
2023-01-25T06:04:30.587Z,101625.81
2023-01-25T06:07:36.733Z,101623.41
2023-01-25T06:10:42.783Z,101625.88
2023-01-25T06:13:47.265Z,101633.59
2023-01-25T06:16:52.493Z,101629.53
2023-01-25T06:19:56.564Z,101638.03
2023-01-25T06:23:03.343Z,101649.34
2023-01-25T06:26:09.040Z,101642.31
2023-01-25T06:29:14.410Z,101649.28
2023-01-25T06:32:17.626Z,101658.94
2023-01-25T06:35:20.836Z,101648.81
2023-01-25T06:38:23.572Z,101653.06
2023-01-25T06:41:27.292Z,101656.53
2023-01-25T06:44:30.024Z,101655.84
2023-01-25T06:47:35.081Z,101656.53
2023-01-25T06:50:40.452Z,101654.03
2023-01-25T06:53:45.734Z,101652.19
2023-01-25T06:56:50.631Z,101654.66
2023-01-25T06:59:53.650Z,101651.09
2023-01-25T07:02:56.660Z,101647.84
2023-01-25T07:06:04.088Z,101648.75
2023-01-25T07:09:12.849Z,101656.56
2023-01-25T07:12:15.995Z,101657.37
2023-01-25T07:15:18.647Z,101658.06
2023-01-25T07:18:22.100Z,101657.84
2023-01-25T07:21:25.538Z,101649.69
2023-01-25T07:24:31.453Z,101647.75
2023-01-25T07:27:35.139Z,101651.09
2023-01-25T07:30:40.619Z,101656.25
2023-01-25T07:33:44.436Z,101658.16
2023-01-25T07:36:48.183Z,101661.59
2023-01-25T07:39:51.169Z,101653.56
2023-01-25T07:42:54.422Z,101661.66
2023-01-25T07:46:04.410Z,101664.66
2023-01-25T07:49:07.336Z,101660.25
2023-01-25T07:52:10.287Z,101659.53
2023-01-25T07:55:15.507Z,101657.47
2023-01-25T07:58:19.186Z,101654.28
2023-01-25T08:01:29.284Z,101651.41
2023-01-25T08:04:32.492Z,101654.88
2023-01-25T08:07:36.460Z,101655.62
2023-01-25T08:10:42.728Z,101656.56
2023-01-25T08:13:49.318Z,101649.59
2023-01-25T08:16:52.337Z,101665.22
2023-01-25T08:19:55.487Z,101663.16
2023-01-25T08:22:58.604Z,101647.03
2023-01-25T08:26:09.417Z,101658.31
2023-01-25T08:29:12.912Z,101652.00
2023-01-25T08:32:16.283Z,101651.09
2023-01-25T08:35:19.160Z,101651.78
2023-01-25T08:38:21.739Z,101642.63
2023-01-25T08:41:26.209Z,101640.91
2023-01-25T08:44:29.340Z,101648.72
2023-01-25T08:47:32.996Z,101649.34
2023-01-25T08:50:36.369Z,101649.84
2023-01-25T08:53:39.577Z,101642.75
2023-01-25T08:56:43.168Z,101646.00
2023-01-25T08:59:46.160Z,101638.84
2023-01-25T09:02:48.945Z,101637.47
2023-01-25T09:05:54.300Z,101636.28
2023-01-25T09:08:59.274Z,101635.69
2023-01-25T09:12:03.180Z,101641.97
2023-01-25T09:15:06.273Z,101643.00
2023-01-25T09:18:09.260Z,101641.69
2023-01-25T09:21:17.137Z,101632.22
2023-01-25T09:24:20.115Z,101629.53
2023-01-25T09:27:22.847Z,101630.91
2023-01-25T09:30:40.832Z,101625.63
2023-01-25T09:33:52.039Z,101625.38
2023-01-25T09:36:55.037Z,101624.22
2023-01-25T09:39:57.714Z,101623.56
2023-01-25T09:43:18.546Z,101621.66
2023-01-25T09:46:44.732Z,101621.75
2023-01-25T09:50:16.974Z,101612.97
2023-01-25T09:53:24.559Z,101605.28
2023-01-25T09:56:33.239Z,101602.50
2023-01-25T09:59:36.118Z,101601.59
2023-01-25T10:02:52.125Z,101594.22
2023-01-25T10:06:00.883Z,101594.25
2023-01-25T10:09:28.481Z,101590.03
2023-01-25T10:12:37.156Z,101587.31
2023-01-25T10:15:51.229Z,101576.75
2023-01-25T10:19:24.204Z,101572.31
2023-01-25T10:22:34.806Z,101572.50
2023-01-25T10:25:54.954Z,101568.94
2023-01-25T10:29:10.400Z,101559.72
2023-01-25T10:32:25.100Z,101559.13
2023-01-25T10:35:40.353Z,101562.34
2023-01-25T10:38:49.102Z,101548.53
2023-01-25T10:42:06.245Z,101554.41
2023-01-25T10:45:13.843Z,101548.72
2023-01-25T10:48:33.335Z,101537.03
2023-01-25T10:51:36.261Z,101538.25
2023-01-25T10:54:39.195Z,101534.19
2023-01-25T10:57:53.368Z,101531.94
2023-01-25T11:01:01.252Z,101537.91
2023-01-25T11:04:23.499Z,101532.59
2023-01-25T11:07:29.148Z,101531.06
2023-01-25T11:10:36.363Z,101525.88
2023-01-25T11:13:41.656Z,101520.50
2023-01-25T11:16:48.249Z,101515.50
2023-01-25T11:20:16.159Z,101511.37
2023-01-25T11:23:26.091Z,101503.03
2023-01-25T11:26:29.765Z,101502.94
2023-01-25T11:29:32.442Z,101489.22
2023-01-25T11:32:39.589Z,101484.09
2023-01-25T11:36:20.110Z,101476.59
2023-01-25T11:39:55.488Z,101470.16
2023-01-25T11:43:35.663Z,101468.28
2023-01-25T11:47:06.543Z,101457.81
2023-01-25T11:50:34.739Z,101444.06
2023-01-25T11:54:03.088Z,101442.28
2023-01-25T11:57:24.498Z,101433.44
2023-01-25T12:00:55.126Z,101429.53
2023-01-25T12:04:13.476Z,101415.25
2023-01-25T12:07:22.214Z,101411.94
2023-01-25T12:10:44.546Z,101406.94
2023-01-25T12:14:14.686Z,101403.94
2023-01-25T12:17:26.861Z,101407.63
2023-01-25T12:21:01.553Z,101400.13
2023-01-25T12:24:17.528Z,101388.75
2023-01-25T12:27:33.402Z,101385.53
2023-01-25T12:30:46.447Z,101387.81
2023-01-25T12:33:56.907Z,101384.06
2023-01-25T12:37:07.014Z,101383.41
2023-01-25T12:40:18.689Z,101385.75
2023-01-25T12:43:33.146Z,101377.03
2023-01-25T12:47:01.227Z,101377.56
2023-01-25T12:50:07.677Z,101371.78
2023-01-25T12:53:36.225Z,101371.47
2023-01-25T12:56:46.571Z,101369.25
2023-01-25T12:59:52.065Z,101363.84
2023-01-25T13:03:12.323Z,101370.19
2023-01-25T13:06:30.651Z,101361.22
2023-01-25T13:09:59.530Z,101358.09
2023-01-25T13:13:22.919Z,101353.88
2023-01-25T13:16:30.044Z,101353.13
2023-01-25T13:19:32.640Z,101344.03
2023-01-25T13:22:45.883Z,101346.34
2023-01-25T13:25:48.546Z,101341.16
2023-01-25T13:28:53.301Z,101336.78
2023-01-25T13:31:59.434Z,101337.41
2023-01-25T13:35:05.153Z,101339.97
2023-01-25T13:38:28.959Z,101339.22
2023-01-25T13:41:32.944Z,101332.66
2023-01-25T13:44:39.483Z,101334.31
2023-01-25T13:47:43.960Z,101337.72
2023-01-25T13:51:05.248Z,101335.31
2023-01-25T13:54:16.143Z,101328.56
2023-01-25T13:57:30.013Z,101328.47
2023-01-25T14:00:36.242Z,101322.75
2023-01-25T14:04:02.108Z,101311.78
2023-01-25T14:07:10.228Z,101317.81
2023-01-25T14:10:19.299Z,101314.63
2023-01-25T14:13:23.981Z,101314.22
2023-01-25T14:16:31.260Z,101307.81
2023-01-25T14:19:37.013Z,101309.91
2023-01-25T14:22:40.026Z,101312.09
2023-01-25T14:25:42.635Z,101315.50
2023-01-25T14:28:59.297Z,101311.31
2023-01-25T14:32:05.538Z,101315.44
2023-01-25T14:35:42.315Z,101313.91
2023-01-25T14:39:01.993Z,101312.25
2023-01-25T14:42:06.310Z,101315.72
2023-01-25T14:45:14.986Z,101307.28
2023-01-25T14:48:41.477Z,101309.00
2023-01-25T14:51:51.604Z,101305.69
2023-01-25T14:55:00.177Z,101309.25
2023-01-25T14:58:03.382Z,101298.00
2023-01-25T15:01:07.048Z,101298.06
2023-01-25T15:04:13.071Z,101301.63
2023-01-25T15:07:35.112Z,101300.69
2023-01-25T15:10:52.597Z,101298.81
2023-01-25T15:14:17.402Z,101295.59
2023-01-25T15:17:36.826Z,101303.59
2023-01-25T15:20:45.145Z,101293.03
2023-01-25T15:23:49.853Z,101297.87
2023-01-25T15:26:55.208Z,101294.28
2023-01-25T15:29:59.404Z,101307.66
2023-01-25T15:33:02.573Z,101292.44
2023-01-25T15:36:05.477Z,101286.69
2023-01-25T15:39:16.696Z,101288.72
2023-01-25T15:42:19.230Z,101290.06
2023-01-25T15:45:22.147Z,101292.81
2023-01-25T15:48:34.132Z,101288.94
2023-01-25T15:51:40.609Z,101287.75
2023-01-25T15:54:51.758Z,101297.00
2023-01-25T15:57:55.310Z,101297.91
2023-01-25T16:01:00.164Z,101286.50
2023-01-25T16:04:04.074Z,101285.72
2023-01-25T16:07:07.104Z,101286.78
2023-01-25T16:10:20.836Z,101279.31
2023-01-25T16:13:24.822Z,101276.16
2023-01-25T16:16:28.244Z,101273.91
2023-01-25T16:19:31.800Z,101272.69
2023-01-25T16:22:34.848Z,101275.19
2023-01-25T16:25:42.500Z,101274.84
2023-01-25T16:28:46.014Z,101269.16
2023-01-25T16:31:49.814Z,101264.91
2023-01-25T16:34:54.323Z,101264.16
2023-01-25T16:37:57.161Z,101264.69
2023-01-25T16:41:00.030Z,101273.34
2023-01-25T16:44:02.906Z,101270.56
2023-01-25T16:47:06.506Z,101265.94
2023-01-25T16:50:19.762Z,101268.34
2023-01-25T16:53:25.238Z,101269.28
2023-01-25T16:56:30.632Z,101268.56
2023-01-25T16:59:34.234Z,101270.16
2023-01-25T17:02:49.755Z,101266.22
2023-01-25T17:06:00.920Z,101257.50
2023-01-25T17:09:20.430Z,101255.47
2023-01-25T17:12:26.281Z,101253.09
2023-01-25T17:15:29.886Z,101256.34
2023-01-25T17:18:33.522Z,101251.84
2023-01-25T17:21:43.180Z,101247.09
2023-01-25T17:24:46.305Z,101251.97
2023-01-25T17:27:49.102Z,101234.97
2023-01-25T17:30:54.906Z,101235.69
2023-01-25T17:33:58.049Z,101242.22
2023-01-25T17:37:01.458Z,101238.81
2023-01-25T17:40:04.604Z,101234.56
2023-01-25T17:43:10.141Z,101229.97
2023-01-25T17:46:21.971Z,101232.22
2023-01-25T17:49:26.431Z,101223.63
2023-01-25T17:52:29.296Z,101214.66
2023-01-25T17:55:36.054Z,101220.91
2023-01-25T17:58:40.848Z,101218.88
2023-01-25T18:01:45.819Z,101224.09
2023-01-25T18:04:49.039Z,101215.00
2023-01-25T18:07:51.957Z,101211.06
2023-01-25T18:10:59.222Z,101218.25
2023-01-25T18:14:10.003Z,101210.16
2023-01-25T18:17:13.297Z,101203.31
2023-01-25T18:20:16.765Z,101197.62
2023-01-25T18:23:20.098Z,101206.31
2023-01-25T18:26:28.254Z,101198.84
2023-01-25T18:29:46.756Z,101204.06
2023-01-25T18:32:49.809Z,101201.50
2023-01-25T18:35:54.080Z,101199.00
2023-01-25T18:38:58.301Z,101195.78
2023-01-25T18:42:02.082Z,101186.63
2023-01-25T18:45:05.574Z,101182.84
2023-01-25T18:48:13.515Z,101172.63
2023-01-25T18:51:17.944Z,101164.97
2023-01-25T18:54:21.187Z,101152.72
2023-01-25T18:57:25.054Z,101146.28
2023-01-25T19:00:33.536Z,101144.59
2023-01-25T19:03:37.618Z,101142.03
2023-01-25T19:06:41.796Z,101152.34
2023-01-25T19:09:44.983Z,101152.34
2023-01-25T19:12:48.889Z,101154.03
2023-01-25T19:16:04.362Z,101146.22
2023-01-25T19:19:09.390Z,101141.06
2023-01-25T19:22:12.018Z,101137.66
2023-01-25T19:25:16.448Z,101136.03
2023-01-25T19:28:19.461Z,101127.63
2023-01-25T19:31:25.584Z,101121.28
2023-01-25T19:34:28.739Z,101123.22
2023-01-25T19:37:33.921Z,101127.00
2023-01-25T19:40:38.779Z,101120.59
2023-01-25T19:43:42.902Z,101113.66
2023-01-25T19:46:46.068Z,101113.78
2023-01-25T19:49:49.475Z,101107.44
2023-01-25T19:52:52.304Z,101111.41
2023-01-25T19:56:02.233Z,101111.47
2023-01-25T19:59:12.283Z,101109.81
2023-01-25T20:02:15.673Z,101100.72
2023-01-25T20:05:22.176Z,101099.50
2023-01-25T20:08:29.941Z,101101.72
2023-01-25T20:11:34.419Z,101107.63
2023-01-25T20:14:38.059Z,101094.22
2023-01-25T20:17:42.078Z,101087.41
2023-01-25T20:20:45.750Z,101081.91
2023-01-25T20:23:53.093Z,101085.25
2023-01-25T20:26:58.863Z,101082.34
2023-01-25T20:30:02.548Z,101084.47
2023-01-25T20:33:13.738Z,101082.31
2023-01-25T20:36:18.287Z,101071.25
2023-01-25T20:39:22.790Z,101065.91
2023-01-25T20:42:27.421Z,101076.09
2023-01-25T20:45:35.349Z,101065.06
2023-01-25T20:48:40.320Z,101068.09
2023-01-25T20:51:44.389Z,101063.47
2023-01-25T20:54:47.743Z,101062.66
2023-01-25T20:57:54.295Z,101052.88
2023-01-25T21:00:59.884Z,101054.56
2023-01-25T21:04:16.646Z,101050.22
2023-01-25T21:07:19.887Z,101046.81
2023-01-25T21:10:24.843Z,101038.41
2023-01-25T21:13:29.376Z,101031.88
2023-01-25T21:16:32.560Z,101034.16
2023-01-25T21:19:35.864Z,101035.78
2023-01-25T21:22:38.928Z,101034.22
2023-01-25T21:25:42.427Z,101029.25
2023-01-25T21:28:46.082Z,101036.75
2023-01-25T21:31:51.190Z,101027.47
2023-01-25T21:34:54.382Z,101027.41
2023-01-25T21:37:57.903Z,101023.91
2023-01-25T21:41:02.850Z,101035.66
2023-01-25T21:44:25.172Z,101027.84
2023-01-25T21:47:31.404Z,101021.97
2023-01-25T21:50:56.613Z,101030.16
2023-01-25T21:54:02.532Z,101018.06
2023-01-25T21:57:10.137Z,101016.31
2023-01-25T22:00:16.310Z,101012.03
2023-01-25T22:03:19.482Z,101001.72
2023-01-25T22:06:22.457Z,101001.91
2023-01-25T22:09:25.695Z,101008.00
2023-01-25T22:12:28.489Z,101002.72
2023-01-25T22:15:31.645Z,100998.59
2023-01-25T22:18:37.701Z,100997.84
2023-01-25T22:21:40.828Z,100994.00
2023-01-25T22:24:43.585Z,100990.22
2023-01-25T22:27:55.312Z,100983.38
2023-01-25T22:30:58.433Z,100983.22
2023-01-25T22:34:01.542Z,100978.94
2023-01-25T22:37:04.167Z,100971.69
2023-01-25T22:40:09.538Z,100976.28
2023-01-25T22:43:14.446Z,100973.91
2023-01-25T22:46:20.260Z,100965.09
2023-01-25T22:49:22.953Z,100972.97
2023-01-25T22:52:26.891Z,100969.31
2023-01-25T22:55:29.831Z,100959.47
2023-01-25T22:58:35.180Z,100960.56
2023-01-25T23:01:37.901Z,100955.22
2023-01-25T23:04:40.893Z,100954.06
2023-01-25T23:07:43.505Z,100948.66
2023-01-25T23:10:48.366Z,100952.44
2023-01-25T23:14:11.723Z,100953.72
2023-01-25T23:17:33.216Z,100951.81
2023-01-25T23:20:38.620Z,100942.34
2023-01-25T23:23:41.687Z,100939.59
2023-01-25T23:26:46.586Z,100936.28
2023-01-25T23:29:52.460Z,100934.97
2023-01-25T23:32:55.320Z,100931.50
2023-01-25T23:36:09.063Z,100929.41
2023-01-25T23:39:14.676Z,100926.34
2023-01-25T23:42:18.216Z,100915.75
2023-01-25T23:45:21.014Z,100906.09
2023-01-25T23:48:24.083Z,100912.03
2023-01-25T23:51:28.024Z,100906.44
2023-01-25T23:54:31.262Z,100899.69
2023-01-25T23:57:33.832Z,100898.50
